EDAC 200120Z AUTO 21006KT 9999 // NCD 15/14 Q1021 EDAC 200050Z AUTO 22006KT 9999 // NCD 16/14 Q1021 EDAC 200020Z AUTO 19007KT 9999 // FEW064/// 16/14 Q1021 EDAC 192350Z AUTO 20005KT 9999 // FEW091/// SCT110/// 16/15 Q1020 EDAC 192320Z AUTO 19006KT 9999 // FEW097/// BKN240/// 17/15 Q1020 EDAC 192250Z AUTO 17004KT 9999 // FEW160/// BKN210/// BKN250/// 17/15 Q1020 EDAC 192220Z AUTO 15003KT 100V200 9999 // SCT110/// BKN140/// BKN210/// 17/16 Q1020 EDAC 192150Z AUTO 15006KT 110V190 9999 // BKN110/// OVC140/// 17/15 Q1020 EDAC 192120Z AUTO 15005KT 9999 // FEW095/// BKN110/// BKN170/// 17/15 Q1021 EDAC 192050Z AUTO 21004KT 100V260 9999 // FEW088/// OVC100/// 17/15 Q1021 EDAC 192020Z AUTO 27014G24KT 240V300 8000 // BKN066/// OVC091/// 17/15 Q1022 EDAC 191950Z AUTO 23006KT 9999 // BKN100/// 21/13 Q1019 EDAC 191920Z AUTO 18004KT 9999 // SCT110/// BKN130/// 22/12 Q1018 EDAC 191850Z AUTO 21005KT 9999 // FEW140/// 22/12 Q1018 EDAC 191820Z AUTO 17005KT 9999 // SCT130/// SCT150/// 25/11 Q1018 EDAC 191750Z 19004KT CAVOK 25/12 Q1018 EDAC 191720Z 22004KT CAVOK 26/12 Q1018 EDAC 191650Z 18004KT 140V210 CAVOK 28/10 Q1018 EDAC 191620Z 16003KT 100V210 CAVOK 29/09 Q1018 EDAC 191550Z 21004KT 150V240 CAVOK 29/09 Q1018 EDAC 191520Z 19005KT 120V220 CAVOK 29/09 Q1018 EDAC 191450Z 20008KT 160V220 CAVOK 28/09 Q1018 EDAC 191420Z 20008KT CAVOK 28/08 Q1019 EDAC 191350Z 19009KT 140V210 CAVOK 28/06 Q1019 EDAC 191320Z 19009KT 160V230 CAVOK 28/07 Q1020 EDAC 191250Z 21006KT 180V280 CAVOK 28/07 Q1020 EDAC 191220Z 19007KT 150V240 CAVOK 27/07 Q1020 EDAC 191120Z VRB03KT CAVOK 27/08 Q1021 EDAC 191050Z 21005KT 140V290 CAVOK 26/07 Q1021 EDAC 191020Z 20005KT 140V240 CAVOK 25/07 Q1022 EDAC 190950Z 19004KT 120V250 CAVOK 25/07 Q1022 EDAC 190920Z 13004KT 090V190 CAVOK 24/05 Q1022 EDAC 190850Z 17006KT 130V210 CAVOK 24/06 Q1022 EDAC 190820Z 19007KT 150V210 CAVOK 23/07 Q1022 EDAC 190750Z 16006KT 130V210 CAVOK 22/07 Q1022 EDAC 190720Z 17006KT 110V210 CAVOK 21/08 Q1023 EDAC 190650Z 16006KT CAVOK 19/08 Q1023 EDAC 190620Z 16007KT 120V190 CAVOK 19/09 Q1023 EDAC 190550Z AUTO 16004KT 110V200 9999 // NCD 18/09 Q1023 EDAC 190520Z AUTO 13004KT 9999 // NCD 16/10 Q1023 EDAC 190450Z AUTO 14006KT 9999 // NCD 15/09 Q1023 EDAC 190420Z AUTO 13003KT 080V150 9999 // NCD 13/09 Q1023 EDAC 190350Z AUTO 14004KT 9999 // NCD 12/09 Q1023 EDAC 190320Z AUTO 14003KT 9999 // NCD 11/09 Q1023 EDAC 190250Z AUTO 16002KT 9999 // NCD 11/09 Q1022 EDAC 190220Z AUTO 00000KT 9999 // NCD 12/10 Q1022 EDAC 190150Z AUTO VRB02KT 9999 // NCD 12/09 Q1022 EDAC 190120Z AUTO 15003KT 9999 // NCD 13/10 Q1022 EDAC 190050Z AUTO 14003KT 9999 // NCD 13/10 Q1023 EDAC 190020Z AUTO 14003KT 9999 // NCD 13/10 Q1023 EDAC 182350Z AUTO VRB01KT 9999 // NCD 12/11 Q1023 EDAC 182320Z AUTO 17003KT 9999 // NCD 14/10 Q1023 EDAC 182250Z AUTO 12002KT 9999 // NCD 14/11 Q1023 EDAC 182220Z AUTO 13002KT 9999 // NCD 15/11 Q1023 EDAC 182150Z AUTO VRB01KT 9999 // NCD 15/11 Q1023 EDAC 182120Z AUTO 15004KT 9999 // NCD 18/10 Q1023 EDAC 182050Z AUTO 14006KT 110V170 9999 // NCD 18/10 Q1023 EDAC 182020Z AUTO 13006KT 9999 // NCD 19/11 Q1023 EDAC 181950Z AUTO 13005KT 9999 // NCD 19/11 Q1023 EDAC 181920Z AUTO 12003KT 070V140 9999 // NCD 19/13 Q1023 EDAC 181850Z AUTO VRB02KT 9999 // NCD 20/13 Q1023 EDAC 181820Z AUTO 08003KT 9999 // NCD 22/13 Q1023 EDAC 181750Z 06004KT CAVOK 24/12 Q1023 EDAC 181720Z 08005KT 060V130 CAVOK 24/11 Q1023 EDAC 181650Z 07005KT 030V120 CAVOK 24/11 Q1023 EDAC 181620Z 09005KT 050V130 CAVOK 25/11 Q1023 EDAC 181550Z VRB03KT CAVOK 25/10 Q1023 EDAC 181520Z 24003KT 150V320 CAVOK 25/10 Q1023 EDAC 181450Z VRB03KT CAVOK 25/09 Q1023 EDAC 181420Z 09005KT 040V170 CAVOK 25/10 Q1024

METAR Messwerte "ALTENBURG-NOBITZ" EDAC

Zurück zur Übersicht

Ortsname
Ländercode / m ü. NN
Zeit Temperatur Taupunkt Rel.
Luftfeuchte
Luftdruck:
Altimeter
NN
Station
Wind in Beaufort
(Knoten)
Sichtweite
(Meter)
Wolken
(Meter über Grund)
Wettererscheinung
ALTENBURG-NOBITZ
DE 193
Fr 20.05. 03:20151494 %1021
1021
998
SSW 2 (6)>= 10000  
ALTENBURG-NOBITZ
DE 193
Fr 20.05. 02:50161488 %1021
1021
998
SW 2 (6)>= 10000  
ALTENBURG-NOBITZ
DE 193
Fr 20.05. 02:20161488 %1021
1021
998
S 3 (7)>= 10000Leicht bewölkt (2000) 
ALTENBURG-NOBITZ
DE 193
Fr 20.05. 01:50161594 %1020
1020
997
SSW 2 (5)>= 10000Wolkig (3400)
Leicht bewölkt (2800)
 
ALTENBURG-NOBITZ
DE 193
Fr 20.05. 01:20171588 %1020
1020
997
S 2 (6)>= 10000Stark bewölkt (7300)
Leicht bewölkt (3000)
 
ALTENBURG-NOBITZ
DE 193
Fr 20.05. 00:50171588 %1020
1020
997
S 2 (4)>= 10000Stark bewölkt (7600)
Stark bewölkt (6400)
Leicht bewölkt (4900)
 
ALTENBURG-NOBITZ
DE 193
Fr 20.05. 00:20171694 %1020
1020
997
SSO 2 (3)
O - SSW
>= 10000Stark bewölkt (6400)
Stark bewölkt (4300)
Wolkig (3400)
 
ALTENBURG-NOBITZ
DE 193
Do 19.05. 23:50171588 %1020
1020
997
SSO 2 (6)
OSO - S
>= 10000Bedeckt (4300)
Stark bewölkt (3400)
 
ALTENBURG-NOBITZ
DE 193
Do 19.05. 23:20171588 %1021
1021
998
SSO 2 (5)>= 10000Stark bewölkt (5200)
Stark bewölkt (3400)
Leicht bewölkt (2900)
 
ALTENBURG-NOBITZ
DE 193
Do 19.05. 22:50171588 %1021
1021
998
SSW 2 (4)
O - W
>= 10000Bedeckt (3000)
Leicht bewölkt (2700)
 
ALTENBURG-NOBITZ
DE 193
Do 19.05. 22:20171588 %1022
1022
999
W 4 (14) - 6 (24)
WSW - WNW
8000Bedeckt (2800)
Stark bewölkt (2000)
 
ALTENBURG-NOBITZ
DE 193
Do 19.05. 21:50211360 %1019
1019
996
SW 2 (6)>= 10000Stark bewölkt (3000) 
ALTENBURG-NOBITZ
DE 193
Do 19.05. 21:20221253 %1018
1017
995
S 2 (4)>= 10000Stark bewölkt (4000)
Wolkig (3400)
 
ALTENBURG-NOBITZ
DE 193
Do 19.05. 20:50221253 %1018
1017
995
SSW 2 (5)>= 10000Leicht bewölkt (4300) 
ALTENBURG-NOBITZ
DE 193
Do 19.05. 20:20251141 %1018
1017
995
S 2 (5)>= 10000Wolkig (4600)
Wolkig (4000)
 
ALTENBURG-NOBITZ
DE 193
Do 19.05. 19:50251244 %1018
1017
995
S 2 (4)>= 10000Nicht signifikant 
ALTENBURG-NOBITZ
DE 193
Do 19.05. 19:20261242 %1018
1017
995
SW 2 (4)>= 10000Nicht signifikant 
ALTENBURG-NOBITZ
DE 193
Do 19.05. 18:50281032 %1018
1017
995
S 2 (4)
SO - SSW
>= 10000Nicht signifikant 
ALTENBURG-NOBITZ
DE 193
Do 19.05. 18:2029929 %1018
1017
995
SSO 2 (3)
O - SSW
>= 10000Nicht signifikant 
ALTENBURG-NOBITZ
DE 193
Do 19.05. 17:5029929 %1018
1017
995
SSW 2 (4)
SSO - WSW
>= 10000Nicht signifikant 
ALTENBURG-NOBITZ
DE 193
Do 19.05. 17:2029929 %1018
1017
995
S 2 (5)
OSO - SW
>= 10000Nicht signifikant 
ALTENBURG-NOBITZ
DE 193
Do 19.05. 16:5028930 %1018
1017
995
SSW 3 (8)
SSO - SW
>= 10000Nicht signifikant 
ALTENBURG-NOBITZ
DE 193
Do 19.05. 16:2028828 %1019
1018
996
SSW 3 (8)>= 10000Nicht signifikant 
ALTENBURG-NOBITZ
DE 193
Do 19.05. 15:5028625 %1019
1018
996
S 3 (9)
SO - SSW
>= 10000Nicht signifikant 
ALTENBURG-NOBITZ
DE 193
Do 19.05. 15:2028727 %1020
1019
997
S 3 (9)
SSO - SW
>= 10000Nicht signifikant 
ALTENBURG-NOBITZ
DE 193
Do 19.05. 14:5028727 %1020
1019
997
SSW 2 (6)
S - W
>= 10000Nicht signifikant 
ALTENBURG-NOBITZ
DE 193
Do 19.05. 14:2027728 %1020
1019
997
S 3 (7)
SSO - WSW
>= 10000Nicht signifikant 
ALTENBURG-NOBITZ
DE 193
Do 19.05. 13:2027830 %1021
1020
998
Uml 2 (3)>= 10000Nicht signifikant 
ALTENBURG-NOBITZ
DE 193
Do 19.05. 12:5026730 %1021
1020
998
SSW 2 (5)
SO - WNW
>= 10000Nicht signifikant 
ALTENBURG-NOBITZ
DE 193
Do 19.05. 12:2025732 %1022
1021
999
SSW 2 (5)
SO - WSW
>= 10000Nicht signifikant 
ALTENBURG-NOBITZ
DE 193
Do 19.05. 11:5025732 %1022
1021
999
S 2 (4)
OSO - WSW
>= 10000Nicht signifikant 
ALTENBURG-NOBITZ
DE 193
Do 19.05. 11:2024529 %1022
1021
999
SO 2 (4)
O - S
>= 10000Nicht signifikant 
ALTENBURG-NOBITZ
DE 193
Do 19.05. 10:5024631 %1022
1021
999
S 2 (6)
SO - SSW
>= 10000Nicht signifikant 
ALTENBURG-NOBITZ
DE 193
Do 19.05. 10:2023736 %1022
1021
999
S 3 (7)
SSO - SSW
>= 10000Nicht signifikant 
ALTENBURG-NOBITZ
DE 193
Do 19.05. 09:5022738 %1022
1021
999
SSO 2 (6)
SO - SSW
>= 10000Nicht signifikant 
ALTENBURG-NOBITZ
DE 193
Do 19.05. 09:2021843 %1023
1023
1000
S 2 (6)
OSO - SSW
>= 10000Nicht signifikant 
ALTENBURG-NOBITZ
DE 193
Do 19.05. 08:5019849 %1023
1023
1000
SSO 2 (6)>= 10000Nicht signifikant 
ALTENBURG-NOBITZ
DE 193
Do 19.05. 08:2019952 %1023
1023
1000
SSO 3 (7)
OSO - S
>= 10000Nicht signifikant 
ALTENBURG-NOBITZ
DE 193
Do 19.05. 07:5018956 %1023
1023
1000
SSO 2 (4)
OSO - SSW
>= 10000  
ALTENBURG-NOBITZ
DE 193
Do 19.05. 07:20161068 %1023
1023
1000
SO 2 (4)>= 10000  
ALTENBURG-NOBITZ
DE 193
Do 19.05. 06:5015967 %1023
1023
1000
SO 2 (6)>= 10000  
ALTENBURG-NOBITZ
DE 193
Do 19.05. 06:2013977 %1023
1023
1000
SO 2 (3)
O - SSO
>= 10000  
ALTENBURG-NOBITZ
DE 193
Do 19.05. 05:5012982 %1023
1023
1000
SO 2 (4)>= 10000  
ALTENBURG-NOBITZ
DE 193
Do 19.05. 05:2011987 %1023
1023
1000
SO 2 (3)>= 10000  
ALTENBURG-NOBITZ
DE 193
Do 19.05. 04:5011987 %1022
1022
999
SSO 1 (2)>= 10000  
ALTENBURG-NOBITZ
DE 193
Do 19.05. 04:20121088 %1022
1022
999
Windstill>= 10000  
ALTENBURG-NOBITZ
DE 193
Do 19.05. 03:5012982 %1022
1022
999
Uml 1 (2)>= 10000  
ALTENBURG-NOBITZ
DE 193
Do 19.05. 03:20131082 %1022
1022
999
SSO 2 (3)>= 10000  
ALTENBURG-NOBITZ
DE 193
Do 19.05. 02:50131082 %1023
1023
1000
SO 2 (3)>= 10000  
ALTENBURG-NOBITZ
DE 193
Do 19.05. 02:20131082 %1023
1023
1000
SO 2 (3)>= 10000  
ALTENBURG-NOBITZ
DE 193
Do 19.05. 01:50121194 %1023
1023
1000
Uml 1 (1)>= 10000  
ALTENBURG-NOBITZ
DE 193
Do 19.05. 01:20141077 %1023
1023
1000
S 2 (3)>= 10000  
ALTENBURG-NOBITZ
DE 193
Do 19.05. 00:50141182 %1023
1023
1000
OSO 1 (2)>= 10000  
ALTENBURG-NOBITZ
DE 193
Do 19.05. 00:20151177 %1023
1023
1000
SO 1 (2)>= 10000  
ALTENBURG-NOBITZ
DE 193
Mi 18.05. 23:50151177 %1023
1023
1000
Uml 1 (1)>= 10000  
ALTENBURG-NOBITZ
DE 193
Mi 18.05. 23:20181059 %1023
1023
1000
SSO 2 (4)>= 10000  
ALTENBURG-NOBITZ
DE 193
Mi 18.05. 22:50181059 %1023
1023
1000
SO 2 (6)
OSO - S
>= 10000  
ALTENBURG-NOBITZ
DE 193
Mi 18.05. 22:20191160 %1023
1023
1000
SO 2 (6)>= 10000  
ALTENBURG-NOBITZ
DE 193
Mi 18.05. 21:50191160 %1023
1023
1000
SO 2 (5)>= 10000  
ALTENBURG-NOBITZ
DE 193
Mi 18.05. 21:20191368 %1023
1023
1000
OSO 2 (3)
ONO - SO
>= 10000  
ALTENBURG-NOBITZ
DE 193
Mi 18.05. 20:50201364 %1023
1023
1000
Uml 1 (2)>= 10000  
ALTENBURG-NOBITZ
DE 193
Mi 18.05. 20:20221357 %1023
1022
1000
O 2 (3)>= 10000  
ALTENBURG-NOBITZ
DE 193
Mi 18.05. 19:50241247 %1023
1022
1000
ONO 2 (4)>= 10000Nicht signifikant 
ALTENBURG-NOBITZ
DE 193
Mi 18.05. 19:20241144 %1023
1022
1000
O 2 (5)
ONO - SO
>= 10000Nicht signifikant 
ALTENBURG-NOBITZ
DE 193
Mi 18.05. 18:50241144 %1023
1022
1000
ONO 2 (5)
NNO - OSO
>= 10000Nicht signifikant 
ALTENBURG-NOBITZ
DE 193
Mi 18.05. 18:20251141 %1023
1022
1000
O 2 (5)
NO - SO
>= 10000Nicht signifikant 
ALTENBURG-NOBITZ
DE 193
Mi 18.05. 17:50251039 %1023
1022
1000
Uml 2 (3)>= 10000Nicht signifikant 
ALTENBURG-NOBITZ
DE 193
Mi 18.05. 17:20251039 %1023
1022
1000
WSW 2 (3)
SSO - NW
>= 10000Nicht signifikant 
ALTENBURG-NOBITZ
DE 193
Mi 18.05. 16:5025936 %1023
1022
1000
Uml 2 (3)>= 10000Nicht signifikant 
ALTENBURG-NOBITZ
DE 193
Mi 18.05. 16:20251039 %1024
1023
1001
O 2 (5)
NO - S
>= 10000Nicht signifikant 

Altimeter: Einstellung am Altimeter (Höhenmesser), die Höhe 0 muss auf diesen Luftdruckwert zeigen, damit das Gerät die Stationshöhe richtig anzeigt.

NN: Luftdruck reduziert auf "Normal Null", auf Meereshöhe, dieser von der Temperatur abhängige Wert wird bisweilen unkorrekt einfach als "Luftdruck" bezeichnet. Eigentlich nur eine fiktive Größe, die es erlaubt, Stationen auf unterschiedlichen Höhen miteinander zu vergleichen.

Station: Realer Luftdruck an der Station.